sensor_id;sensor_type;location;lat;lon;timestamp;P1;durP1;ratioP1;P2;durP2;ratioP2
12780;SDS011;6454;43.304;24.344;2023-11-21T00:00:26;1.50;;;1.37;;
12780;SDS011;6454;43.304;24.344;2023-11-21T00:02:53;3.97;;;1.60;;
12780;SDS011;6454;43.304;24.344;2023-11-21T00:05:22;2.00;;;1.77;;
12780;SDS011;6454;43.304;24.344;2023-11-21T00:07:50;4.30;;;1.80;;
12780;SDS011;6454;43.304;24.344;2023-11-21T00:10:17;3.07;;;2.00;;
12780;SDS011;6454;43.304;24.344;2023-11-21T00:12:45;4.37;;;2.10;;
12780;SDS011;6454;43.304;24.344;2023-11-21T00:15:13;2.90;;;2.10;;
12780;SDS011;6454;43.304;24.344;2023-11-21T00:17:42;3.10;;;2.37;;
12780;SDS011;6454;43.304;24.344;2023-11-21T00:20:09;3.43;;;2.23;;
12780;SDS011;6454;43.304;24.344;2023-11-21T00:22:40;3.17;;;1.87;;
12780;SDS011;6454;43.304;24.344;2023-11-21T00:25:08;4.37;;;2.20;;
12780;SDS011;6454;43.304;24.344;2023-11-21T00:27:36;2.27;;;1.93;;
12780;SDS011;6454;43.304;24.344;2023-11-21T00:30:04;2.87;;;2.07;;
12780;SDS011;6454;43.304;24.344;2023-11-21T00:32:32;2.47;;;1.90;;
12780;SDS011;6454;43.304;24.344;2023-11-21T00:34:59;7.83;;;2.50;;
12780;SDS011;6454;43.304;24.344;2023-11-21T00:37:27;3.67;;;2.10;;
12780;SDS011;6454;43.304;24.344;2023-11-21T00:39:55;3.13;;;2.30;;
12780;SDS011;6454;43.304;24.344;2023-11-21T00:42:22;3.93;;;2.13;;
12780;SDS011;6454;43.304;24.344;2023-11-21T00:44:49;2.53;;;2.03;;
12780;SDS011;6454;43.304;24.344;2023-11-21T00:47:17;5.07;;;2.10;;
12780;SDS011;6454;43.304;24.344;2023-11-21T00:49:44;3.33;;;1.87;;
12780;SDS011;6454;43.304;24.344;2023-11-21T00:52:11;2.87;;;1.90;;
12780;SDS011;6454;43.304;24.344;2023-11-21T00:54:38;6.10;;;2.03;;
12780;SDS011;6454;43.304;24.344;2023-11-21T00:57:07;2.70;;;2.13;;
12780;SDS011;6454;43.304;24.344;2023-11-21T00:59:34;2.90;;;2.03;;
12780;SDS011;6454;43.304;24.344;2023-11-21T01:02:01;3.43;;;2.17;;
12780;SDS011;6454;43.304;24.344;2023-11-21T01:04:30;1.67;;;1.57;;
12780;SDS011;6454;43.304;24.344;2023-11-21T01:06:58;2.50;;;1.90;;
12780;SDS011;6454;43.304;24.344;2023-11-21T01:09:25;2.40;;;1.93;;
12780;SDS011;6454;43.304;24.344;2023-11-21T01:11:53;4.00;;;2.10;;
12780;SDS011;6454;43.304;24.344;2023-11-21T01:14:22;2.90;;;1.97;;
12780;SDS011;6454;43.304;24.344;2023-11-21T01:16:51;3.23;;;1.87;;
12780;SDS011;6454;43.304;24.344;2023-11-21T01:19:18;2.20;;;1.90;;
12780;SDS011;6454;43.304;24.344;2023-11-21T01:21:47;3.83;;;1.73;;
12780;SDS011;6454;43.304;24.344;2023-11-21T01:24:14;3.80;;;2.10;;
12780;SDS011;6454;43.304;24.344;2023-11-21T01:26:41;5.00;;;1.80;;
12780;SDS011;6454;43.304;24.344;2023-11-21T01:29:08;2.70;;;1.70;;
12780;SDS011;6454;43.304;24.344;2023-11-21T01:31:37;2.30;;;1.90;;
12780;SDS011;6454;43.304;24.344;2023-11-21T01:34:04;2.97;;;1.80;;
12780;SDS011;6454;43.304;24.344;2023-11-21T01:36:32;4.47;;;1.93;;
12780;SDS011;6454;43.304;24.344;2023-11-21T01:38:59;3.17;;;1.90;;
12780;SDS011;6454;43.304;24.344;2023-11-21T01:41:26;3.90;;;2.10;;
12780;SDS011;6454;43.304;24.344;2023-11-21T01:43:54;2.30;;;1.73;;
12780;SDS011;6454;43.304;24.344;2023-11-21T01:46:21;3.57;;;1.80;;
12780;SDS011;6454;43.304;24.344;2023-11-21T01:48:51;3.80;;;1.80;;
12780;SDS011;6454;43.304;24.344;2023-11-21T01:51:20;3.77;;;1.90;;
12780;SDS011;6454;43.304;24.344;2023-11-21T01:53:47;2.30;;;1.90;;
12780;SDS011;6454;43.304;24.344;2023-11-21T01:56:14;2.20;;;1.80;;
12780;SDS011;6454;43.304;24.344;2023-11-21T01:58:42;3.10;;;1.63;;
12780;SDS011;6454;43.304;24.344;2023-11-21T02:01:12;2.57;;;1.93;;
12780;SDS011;6454;43.304;24.344;2023-11-21T02:03:39;2.20;;;1.80;;
12780;SDS011;6454;43.304;24.344;2023-11-21T02:06:08;2.20;;;1.70;;
12780;SDS011;6454;43.304;24.344;2023-11-21T02:08:36;4.47;;;2.07;;
12780;SDS011;6454;43.304;24.344;2023-11-21T02:11:04;2.67;;;2.17;;
12780;SDS011;6454;43.304;24.344;2023-11-21T02:13:34;3.60;;;2.30;;
12780;SDS011;6454;43.304;24.344;2023-11-21T02:16:02;3.23;;;2.10;;
12780;SDS011;6454;43.304;24.344;2023-11-21T02:18:30;3.17;;;2.23;;
12780;SDS011;6454;43.304;24.344;2023-11-21T02:20:57;2.07;;;1.87;;
12780;SDS011;6454;43.304;24.344;2023-11-21T02:23:29;4.33;;;2.03;;
12780;SDS011;6454;43.304;24.344;2023-11-21T02:25:56;3.50;;;2.50;;
12780;SDS011;6454;43.304;24.344;2023-11-21T02:28:26;7.37;;;2.63;;
12780;SDS011;6454;43.304;24.344;2023-11-21T02:30:54;5.37;;;2.77;;
12780;SDS011;6454;43.304;24.344;2023-11-21T02:33:23;3.47;;;2.40;;
12780;SDS011;6454;43.304;24.344;2023-11-21T02:35:50;5.80;;;2.80;;
12780;SDS011;6454;43.304;24.344;2023-11-21T02:38:20;3.03;;;2.40;;
12780;SDS011;6454;43.304;24.344;2023-11-21T02:40:49;4.13;;;2.67;;
12780;SDS011;6454;43.304;24.344;2023-11-21T02:43:16;3.30;;;2.20;;
12780;SDS011;6454;43.304;24.344;2023-11-21T02:45:43;6.87;;;2.27;;
12780;SDS011;6454;43.304;24.344;2023-11-21T02:48:10;3.43;;;2.10;;
12780;SDS011;6454;43.304;24.344;2023-11-21T02:50:38;3.23;;;2.40;;
12780;SDS011;6454;43.304;24.344;2023-11-21T02:53:05;3.83;;;2.70;;
12780;SDS011;6454;43.304;24.344;2023-11-21T02:55:33;3.50;;;2.37;;
12780;SDS011;6454;43.304;24.344;2023-11-21T02:58:02;3.37;;;2.20;;
12780;SDS011;6454;43.304;24.344;2023-11-21T03:00:31;3.83;;;2.30;;
12780;SDS011;6454;43.304;24.344;2023-11-21T03:02:58;3.43;;;2.20;;
12780;SDS011;6454;43.304;24.344;2023-11-21T03:05:26;3.27;;;2.20;;
12780;SDS011;6454;43.304;24.344;2023-11-21T03:07:54;3.77;;;2.60;;
12780;SDS011;6454;43.304;24.344;2023-11-21T03:10:23;2.60;;;2.00;;
12780;SDS011;6454;43.304;24.344;2023-11-21T03:12:50;2.53;;;2.07;;
12780;SDS011;6454;43.304;24.344;2023-11-21T03:15:19;3.17;;;2.10;;
12780;SDS011;6454;43.304;24.344;2023-11-21T03:17:47;2.80;;;1.97;;
12780;SDS011;6454;43.304;24.344;2023-11-21T03:20:15;2.20;;;1.83;;
12780;SDS011;6454;43.304;24.344;2023-11-21T03:22:42;2.17;;;1.93;;
12780;SDS011;6454;43.304;24.344;2023-11-21T03:25:09;2.30;;;1.80;;
12780;SDS011;6454;43.304;24.344;2023-11-21T03:27:37;2.60;;;2.03;;
12780;SDS011;6454;43.304;24.344;2023-11-21T03:30:05;2.43;;;1.97;;
12780;SDS011;6454;43.304;24.344;2023-11-21T03:32:35;2.20;;;1.80;;
12780;SDS011;6454;43.304;24.344;2023-11-21T03:35:03;2.57;;;2.00;;
12780;SDS011;6454;43.304;24.344;2023-11-21T03:37:31;3.43;;;1.80;;
12780;SDS011;6454;43.304;24.344;2023-11-21T03:39:58;2.17;;;1.63;;
12780;SDS011;6454;43.304;24.344;2023-11-21T03:42:26;2.00;;;1.80;;
12780;SDS011;6454;43.304;24.344;2023-11-21T03:44:53;2.27;;;1.80;;
12780;SDS011;6454;43.304;24.344;2023-11-21T03:47:21;2.03;;;1.70;;
12780;SDS011;6454;43.304;24.344;2023-11-21T03:49:51;1.70;;;1.60;;
12780;SDS011;6454;43.304;24.344;2023-11-21T03:52:18;2.60;;;1.90;;
12780;SDS011;6454;43.304;24.344;2023-11-21T03:54:45;2.60;;;1.63;;
12780;SDS011;6454;43.304;24.344;2023-11-21T03:57:12;2.07;;;1.70;;
12780;SDS011;6454;43.304;24.344;2023-11-21T03:59:40;3.20;;;1.73;;
12780;SDS011;6454;43.304;24.344;2023-11-21T04:02:08;3.67;;;2.00;;
12780;SDS011;6454;43.304;24.344;2023-11-21T04:04:35;1.97;;;1.70;;
12780;SDS011;6454;43.304;24.344;2023-11-21T04:07:05;2.13;;;1.83;;
12780;SDS011;6454;43.304;24.344;2023-11-21T04:09:32;4.47;;;2.03;;
12780;SDS011;6454;43.304;24.344;2023-11-21T04:12:01;3.43;;;2.50;;
12780;SDS011;6454;43.304;24.344;2023-11-21T04:14:29;5.73;;;2.80;;
12780;SDS011;6454;43.304;24.344;2023-11-21T04:16:56;3.33;;;2.67;;
12780;SDS011;6454;43.304;24.344;2023-11-21T04:19:23;2.87;;;2.40;;
12780;SDS011;6454;43.304;24.344;2023-11-21T04:21:50;5.97;;;2.70;;
12780;SDS011;6454;43.304;24.344;2023-11-21T04:24:19;5.10;;;2.70;;
12780;SDS011;6454;43.304;24.344;2023-11-21T04:26:47;9.90;;;2.60;;
12780;SDS011;6454;43.304;24.344;2023-11-21T04:29:14;3.77;;;2.37;;
12780;SDS011;6454;43.304;24.344;2023-11-21T04:31:41;2.23;;;1.87;;
12780;SDS011;6454;43.304;24.344;2023-11-21T04:34:09;5.57;;;2.40;;
12780;SDS011;6454;43.304;24.344;2023-11-21T04:36:36;2.97;;;2.10;;
12780;SDS011;6454;43.304;24.344;2023-11-21T04:39:03;3.23;;;2.30;;
12780;SDS011;6454;43.304;24.344;2023-11-21T04:41:33;3.97;;;1.93;;
12780;SDS011;6454;43.304;24.344;2023-11-21T04:44:01;3.10;;;2.30;;
12780;SDS011;6454;43.304;24.344;2023-11-21T04:46:30;2.80;;;1.97;;
12780;SDS011;6454;43.304;24.344;2023-11-21T04:48:57;2.47;;;2.00;;
12780;SDS011;6454;43.304;24.344;2023-11-21T04:51:24;2.43;;;1.60;;
12780;SDS011;6454;43.304;24.344;2023-11-21T04:53:51;3.20;;;2.10;;
12780;SDS011;6454;43.304;24.344;2023-11-21T04:56:18;3.00;;;2.03;;
12780;SDS011;6454;43.304;24.344;2023-11-21T04:58:47;3.03;;;2.13;;
12780;SDS011;6454;43.304;24.344;2023-11-21T05:01:16;4.93;;;2.80;;
12780;SDS011;6454;43.304;24.344;2023-11-21T05:03:47;5.23;;;2.83;;
12780;SDS011;6454;43.304;24.344;2023-11-21T05:06:14;4.47;;;2.70;;
12780;SDS011;6454;43.304;24.344;2023-11-21T05:08:41;5.77;;;2.50;;
12780;SDS011;6454;43.304;24.344;2023-11-21T05:11:09;4.03;;;2.27;;
12780;SDS011;6454;43.304;24.344;2023-11-21T05:13:36;2.63;;;2.10;;
12780;SDS011;6454;43.304;24.344;2023-11-21T05:16:06;3.40;;;2.07;;
12780;SDS011;6454;43.304;24.344;2023-11-21T05:18:33;8.63;;;2.20;;
12780;SDS011;6454;43.304;24.344;2023-11-21T05:21:01;3.30;;;2.10;;
12780;SDS011;6454;43.304;24.344;2023-11-21T05:23:28;3.23;;;2.13;;
12780;SDS011;6454;43.304;24.344;2023-11-21T05:25:55;2.80;;;2.27;;
12780;SDS011;6454;43.304;24.344;2023-11-21T05:28:24;3.87;;;2.07;;
12780;SDS011;6454;43.304;24.344;2023-11-21T05:30:51;5.10;;;2.40;;
12780;SDS011;6454;43.304;24.344;2023-11-21T05:33:20;2.80;;;1.90;;
12780;SDS011;6454;43.304;24.344;2023-11-21T05:35:48;4.47;;;1.80;;
12780;SDS011;6454;43.304;24.344;2023-11-21T05:38:15;2.43;;;1.83;;
12780;SDS011;6454;43.304;24.344;2023-11-21T05:40:46;2.10;;;1.37;;
12780;SDS011;6454;43.304;24.344;2023-11-21T05:43:14;1.90;;;1.60;;
12780;SDS011;6454;43.304;24.344;2023-11-21T05:45:43;4.23;;;2.40;;
12780;SDS011;6454;43.304;24.344;2023-11-21T05:48:10;5.60;;;1.90;;
12780;SDS011;6454;43.304;24.344;2023-11-21T05:50:39;3.37;;;1.60;;
12780;SDS011;6454;43.304;24.344;2023-11-21T05:53:06;1.80;;;1.57;;
12780;SDS011;6454;43.304;24.344;2023-11-21T05:55:36;2.23;;;1.70;;
12780;SDS011;6454;43.304;24.344;2023-11-21T05:58:04;1.87;;;1.57;;
12780;SDS011;6454;43.304;24.344;2023-11-21T06:00:32;1.93;;;1.63;;
12780;SDS011;6454;43.304;24.344;2023-11-21T06:03:00;2.40;;;1.60;;
12780;SDS011;6454;43.304;24.344;2023-11-21T06:05:27;2.13;;;1.60;;
12780;SDS011;6454;43.304;24.344;2023-11-21T06:07:58;3.10;;;1.50;;
12780;SDS011;6454;43.304;24.344;2023-11-21T06:10:26;2.57;;;1.73;;
12780;SDS011;6454;43.304;24.344;2023-11-21T06:12:54;1.83;;;1.43;;
12780;SDS011;6454;43.304;24.344;2023-11-21T06:15:22;3.53;;;2.07;;
12780;SDS011;6454;43.304;24.344;2023-11-21T06:17:50;5.80;;;3.93;;
12780;SDS011;6454;43.304;24.344;2023-11-21T06:20:20;9.50;;;3.50;;
12780;SDS011;6454;43.304;24.344;2023-11-21T06:22:48;4.00;;;2.77;;
12780;SDS011;6454;43.304;24.344;2023-11-21T06:25:18;4.10;;;2.53;;
12780;SDS011;6454;43.304;24.344;2023-11-21T06:27:45;3.07;;;1.93;;
12780;SDS011;6454;43.304;24.344;2023-11-21T06:30:13;3.30;;;1.90;;
12780;SDS011;6454;43.304;24.344;2023-11-21T06:32:41;1.95;;;1.50;;
12780;SDS011;6454;43.304;24.344;2023-11-21T06:35:12;3.33;;;2.13;;
12780;SDS011;6454;43.304;24.344;2023-11-21T06:37:40;3.30;;;2.00;;
12780;SDS011;6454;43.304;24.344;2023-11-21T06:40:12;2.00;;;1.60;;
12780;SDS011;6454;43.304;24.344;2023-11-21T06:42:42;3.30;;;1.40;;
12780;SDS011;6454;43.304;24.344;2023-11-21T06:45:12;2.07;;;1.67;;
12780;SDS011;6454;43.304;24.344;2023-11-21T06:47:40;3.70;;;1.70;;
12780;SDS011;6454;43.304;24.344;2023-11-21T06:50:08;2.27;;;1.60;;
12780;SDS011;6454;43.304;24.344;2023-11-21T06:52:36;2.97;;;1.50;;
12780;SDS011;6454;43.304;24.344;2023-11-21T06:55:04;2.30;;;1.35;;
12780;SDS011;6454;43.304;24.344;2023-11-21T06:57:33;4.27;;;2.40;;
12780;SDS011;6454;43.304;24.344;2023-11-21T07:00:02;5.30;;;2.78;;
12780;SDS011;6454;43.304;24.344;2023-11-21T07:02:34;6.63;;;3.33;;
12780;SDS011;6454;43.304;24.344;2023-11-21T07:05:01;6.65;;;2.70;;
12780;SDS011;6454;43.304;24.344;2023-11-21T07:07:28;8.27;;;3.38;;
12780;SDS011;6454;43.304;24.344;2023-11-21T07:09:55;9.93;;;3.63;;
12780;SDS011;6454;43.304;24.344;2023-11-21T07:12:22;16.00;;;4.13;;
12780;SDS011;6454;43.304;24.344;2023-11-21T07:14:51;7.95;;;2.88;;
12780;SDS011;6454;43.304;24.344;2023-11-21T07:17:20;5.93;;;2.15;;
12780;SDS011;6454;43.304;24.344;2023-11-21T07:19:48;2.70;;;1.80;;
12780;SDS011;6454;43.304;24.344;2023-11-21T07:22:16;2.13;;;1.40;;
12780;SDS011;6454;43.304;24.344;2023-11-21T07:24:47;3.05;;;1.20;;
12780;SDS011;6454;43.304;24.344;2023-11-21T07:27:16;3.03;;;1.67;;
12780;SDS011;6454;43.304;24.344;2023-11-21T07:29:45;2.28;;;1.60;;
12780;SDS011;6454;43.304;24.344;2023-11-21T07:32:13;1.75;;;1.38;;
12780;SDS011;6454;43.304;24.344;2023-11-21T07:34:42;2.33;;;1.20;;
12780;SDS011;6454;43.304;24.344;2023-11-21T07:37:10;1.30;;;1.17;;
12780;SDS011;6454;43.304;24.344;2023-11-21T07:39:37;2.65;;;1.33;;
12780;SDS011;6454;43.304;24.344;2023-11-21T07:42:07;1.52;;;1.10;;
12780;SDS011;6454;43.304;24.344;2023-11-21T07:44:36;1.30;;;1.20;;
12780;SDS011;6454;43.304;24.344;2023-11-21T07:47:03;1.70;;;1.10;;
12780;SDS011;6454;43.304;24.344;2023-11-21T07:49:30;1.70;;;1.10;;
12780;SDS011;6454;43.304;24.344;2023-11-21T07:51:59;1.73;;;1.20;;
12780;SDS011;6454;43.304;24.344;2023-11-21T07:54:26;4.95;;;1.10;;
12780;SDS011;6454;43.304;24.344;2023-11-21T07:56:53;2.22;;;1.20;;
12780;SDS011;6454;43.304;24.344;2023-11-21T07:59:20;1.33;;;1.17;;
12780;SDS011;6454;43.304;24.344;2023-11-21T08:01:47;1.80;;;1.27;;
12780;SDS011;6454;43.304;24.344;2023-11-21T08:04:15;2.10;;;1.23;;
12780;SDS011;6454;43.304;24.344;2023-11-21T08:06:44;1.33;;;1.20;;
12780;SDS011;6454;43.304;24.344;2023-11-21T08:09:14;1.95;;;1.27;;
12780;SDS011;6454;43.304;24.344;2023-11-21T08:11:42;2.90;;;1.75;;
12780;SDS011;6454;43.304;24.344;2023-11-21T08:14:11;4.20;;;2.20;;
12780;SDS011;6454;43.304;24.344;2023-11-21T08:16:40;4.78;;;2.53;;
12780;SDS011;6454;43.304;24.344;2023-11-21T08:19:07;3.40;;;1.83;;
12780;SDS011;6454;43.304;24.344;2023-11-21T08:21:35;3.65;;;1.50;;
12780;SDS011;6454;43.304;24.344;2023-11-21T08:24:05;5.82;;;1.42;;
12780;SDS011;6454;43.304;24.344;2023-11-21T08:26:37;1.35;;;1.10;;
12780;SDS011;6454;43.304;24.344;2023-11-21T08:29:05;1.98;;;1.23;;
12780;SDS011;6454;43.304;24.344;2023-11-21T08:31:32;1.40;;;1.23;;
12780;SDS011;6454;43.304;24.344;2023-11-21T08:33:59;5.15;;;1.55;;
12780;SDS011;6454;43.304;24.344;2023-11-21T08:36:27;1.35;;;1.17;;
12780;SDS011;6454;43.304;24.344;2023-11-21T08:38:57;1.05;;;0.95;;
12780;SDS011;6454;43.304;24.344;2023-11-21T08:41:24;2.45;;;1.20;;
12780;SDS011;6454;43.304;24.344;2023-11-21T08:43:54;2.05;;;1.05;;
12780;SDS011;6454;43.304;24.344;2023-11-21T08:46:23;2.47;;;0.90;;
12780;SDS011;6454;43.304;24.344;2023-11-21T08:48:51;1.77;;;0.90;;
12780;SDS011;6454;43.304;24.344;2023-11-21T08:51:18;1.00;;;0.90;;
12780;SDS011;6454;43.304;24.344;2023-11-21T08:53:46;1.10;;;1.00;;
12780;SDS011;6454;43.304;24.344;2023-11-21T08:56:13;1.55;;;1.08;;
12780;SDS011;6454;43.304;24.344;2023-11-21T08:58:40;1.60;;;1.10;;
12780;SDS011;6454;43.304;24.344;2023-11-21T09:01:09;1.00;;;0.90;;
12780;SDS011;6454;43.304;24.344;2023-11-21T09:03:37;1.95;;;0.95;;
12780;SDS011;6454;43.304;24.344;2023-11-21T09:06:04;0.75;;;0.75;;
12780;SDS011;6454;43.304;24.344;2023-11-21T09:08:34;0.95;;;0.85;;
12780;SDS011;6454;43.304;24.344;2023-11-21T09:11:02;1.75;;;0.93;;
12780;SDS011;6454;43.304;24.344;2023-11-21T09:13:30;1.10;;;1.00;;
12780;SDS011;6454;43.304;24.344;2023-11-21T09:15:57;0.80;;;0.80;;
12780;SDS011;6454;43.304;24.344;2023-11-21T09:18:26;1.50;;;1.00;;
12780;SDS011;6454;43.304;24.344;2023-11-21T09:20:54;0.95;;;0.90;;
12780;SDS011;6454;43.304;24.344;2023-11-21T09:23:21;1.25;;;0.95;;
12780;SDS011;6454;43.304;24.344;2023-11-21T09:25:48;1.23;;;0.90;;
12780;SDS011;6454;43.304;24.344;2023-11-21T09:28:17;1.90;;;0.90;;
12780;SDS011;6454;43.304;24.344;2023-11-21T09:30:44;1.52;;;0.90;;
12780;SDS011;6454;43.304;24.344;2023-11-21T09:33:12;0.85;;;0.85;;
12780;SDS011;6454;43.304;24.344;2023-11-21T09:35:41;1.00;;;0.80;;
12780;SDS011;6454;43.304;24.344;2023-11-21T09:38:09;0.85;;;0.85;;
12780;SDS011;6454;43.304;24.344;2023-11-21T09:40:36;1.13;;;0.90;;
12780;SDS011;6454;43.304;24.344;2023-11-21T09:43:05;1.00;;;0.90;;
12780;SDS011;6454;43.304;24.344;2023-11-21T09:45:41;1.83;;;0.88;;
12780;SDS011;6454;43.304;24.344;2023-11-21T09:48:12;1.00;;;0.85;;
12780;SDS011;6454;43.304;24.344;2023-11-21T09:50:39;0.75;;;0.75;;
12780;SDS011;6454;43.304;24.344;2023-11-21T09:53:13;0.82;;;0.70;;
12780;SDS011;6454;43.304;24.344;2023-11-21T09:55:43;1.45;;;0.95;;
12780;SDS011;6454;43.304;24.344;2023-11-21T09:58:13;1.10;;;0.90;;
12780;SDS011;6454;43.304;24.344;2023-11-21T10:00:41;2.40;;;1.52;;
12780;SDS011;6454;43.304;24.344;2023-11-21T10:03:09;1.33;;;1.23;;
12780;SDS011;6454;43.304;24.344;2023-11-21T10:05:37;0.80;;;0.80;;
12780;SDS011;6454;43.304;24.344;2023-11-21T10:08:07;2.80;;;1.77;;
12780;SDS011;6454;43.304;24.344;2023-11-21T10:10:36;0.98;;;0.85;;
12780;SDS011;6454;43.304;24.344;2023-11-21T10:13:06;1.48;;;1.10;;
12780;SDS011;6454;43.304;24.344;2023-11-21T10:15:38;3.22;;;1.10;;
12780;SDS011;6454;43.304;24.344;2023-11-21T10:18:09;2.35;;;1.13;;
12780;SDS011;6454;43.304;24.344;2023-11-21T10:20:37;1.95;;;1.50;;
12780;SDS011;6454;43.304;24.344;2023-11-21T10:23:04;1.02;;;0.80;;
12780;SDS011;6454;43.304;24.344;2023-11-21T10:25:34;1.05;;;0.82;;
12780;SDS011;6454;43.304;24.344;2023-11-21T10:28:03;1.10;;;1.00;;
12780;SDS011;6454;43.304;24.344;2023-11-21T10:30:32;0.80;;;0.80;;
12780;SDS011;6454;43.304;24.344;2023-11-21T10:33:02;1.52;;;1.30;;
12780;SDS011;6454;43.304;24.344;2023-11-21T10:35:45;1.20;;;1.10;;
12780;SDS011;6454;43.304;24.344;2023-11-21T10:38:16;1.27;;;1.17;;
12780;SDS011;6454;43.304;24.344;2023-11-21T10:40:47;2.17;;;1.50;;
12780;SDS011;6454;43.304;24.344;2023-11-21T10:43:15;34.08;;;16.15;;
12780;SDS011;6454;43.304;24.344;2023-11-21T10:45:42;7.57;;;4.60;;
12780;SDS011;6454;43.304;24.344;2023-11-21T10:48:11;3.40;;;1.80;;
12780;SDS011;6454;43.304;24.344;2023-11-21T10:50:41;2.95;;;1.60;;
12780;SDS011;6454;43.304;24.344;2023-11-21T10:53:09;2.00;;;1.60;;
12780;SDS011;6454;43.304;24.344;2023-11-21T10:55:38;1.27;;;1.13;;
12780;SDS011;6454;43.304;24.344;2023-11-21T10:58:07;1.20;;;0.80;;
12780;SDS011;6454;43.304;24.344;2023-11-21T11:00:36;2.53;;;1.02;;
12780;SDS011;6454;43.304;24.344;2023-11-21T11:03:05;1.35;;;1.17;;
12780;SDS011;6454;43.304;24.344;2023-11-21T11:05:38;1.73;;;0.98;;
12780;SDS011;6454;43.304;24.344;2023-11-21T11:08:07;1.60;;;1.13;;
12780;SDS011;6454;43.304;24.344;2023-11-21T11:10:38;1.08;;;0.90;;
12780;SDS011;6454;43.304;24.344;2023-11-21T11:13:06;1.33;;;1.05;;
12780;SDS011;6454;43.304;24.344;2023-11-21T11:15:39;1.08;;;1.00;;
12780;SDS011;6454;43.304;24.344;2023-11-21T11:18:07;1.45;;;1.35;;
12780;SDS011;6454;43.304;24.344;2023-11-21T11:20:35;1.10;;;1.00;;
12780;SDS011;6454;43.304;24.344;2023-11-21T11:23:11;1.80;;;0.90;;
12780;SDS011;6454;43.304;24.344;2023-11-21T11:25:57;1.80;;;0.93;;
12780;SDS011;6454;43.304;24.344;2023-11-21T11:28:38;0.95;;;0.90;;
12780;SDS011;6454;43.304;24.344;2023-11-21T11:31:14;1.55;;;1.00;;
12780;SDS011;6454;43.304;24.344;2023-11-21T11:33:53;2.25;;;1.00;;
12780;SDS011;6454;43.304;24.344;2023-11-21T11:36:25;1.05;;;0.95;;
12780;SDS011;6454;43.304;24.344;2023-11-21T11:38:55;1.08;;;0.85;;
12780;SDS011;6454;43.304;24.344;2023-11-21T11:41:26;3.65;;;1.80;;
12780;SDS011;6454;43.304;24.344;2023-11-21T11:43:57;2.53;;;1.60;;
12780;SDS011;6454;43.304;24.344;2023-11-21T11:46:40;3.22;;;1.60;;
12780;SDS011;6454;43.304;24.344;2023-11-21T11:49:10;1.15;;;1.00;;
12780;SDS011;6454;43.304;24.344;2023-11-21T11:54:52;3.72;;;1.40;;
12780;SDS011;6454;43.304;24.344;2023-11-21T11:57:23;2.03;;;1.50;;
12780;SDS011;6454;43.304;24.344;2023-11-21T12:02:46;5.47;;;4.43;;
12780;SDS011;6454;43.304;24.344;2023-11-21T12:05:13;7.10;;;3.60;;
12780;SDS011;6454;43.304;24.344;2023-11-21T12:07:43;3.45;;;2.58;;
12780;SDS011;6454;43.304;24.344;2023-11-21T12:10:12;5.05;;;3.50;;
12780;SDS011;6454;43.304;24.344;2023-11-21T12:12:43;39.47;;;20.63;;
12780;SDS011;6454;43.304;24.344;2023-11-21T12:15:13;10.25;;;7.28;;
12780;SDS011;6454;43.304;24.344;2023-11-21T12:17:42;15.35;;;9.57;;
12780;SDS011;6454;43.304;24.344;2023-11-21T12:20:10;48.90;;;28.02;;
12780;SDS011;6454;43.304;24.344;2023-11-21T12:22:44;32.08;;;15.27;;
12780;SDS011;6454;43.304;24.344;2023-11-21T12:25:14;9.48;;;5.40;;
12780;SDS011;6454;43.304;24.344;2023-11-21T12:27:44;7.30;;;4.13;;
12780;SDS011;6454;43.304;24.344;2023-11-21T12:30:13;7.18;;;3.67;;
12780;SDS011;6454;43.304;24.344;2023-11-21T12:32:43;10.50;;;5.32;;
12780;SDS011;6454;43.304;24.344;2023-11-21T12:35:12;6.65;;;3.40;;
12780;SDS011;6454;43.304;24.344;2023-11-21T12:37:41;6.05;;;3.05;;
12780;SDS011;6454;43.304;24.344;2023-11-21T12:40:09;3.40;;;2.50;;
12780;SDS011;6454;43.304;24.344;2023-11-21T12:42:40;5.68;;;2.75;;
12780;SDS011;6454;43.304;24.344;2023-11-21T12:45:09;2.92;;;2.17;;
12780;SDS011;6454;43.304;24.344;2023-11-21T12:47:47;3.20;;;2.22;;
12780;SDS011;6454;43.304;24.344;2023-11-21T12:50:15;5.82;;;3.33;;
12780;SDS011;6454;43.304;24.344;2023-11-21T12:52:49;7.80;;;3.10;;
12780;SDS011;6454;43.304;24.344;2023-11-21T12:55:19;9.43;;;3.38;;
12780;SDS011;6454;43.304;24.344;2023-11-21T12:57:48;7.45;;;3.58;;
12780;SDS011;6454;43.304;24.344;2023-11-21T13:00:20;4.53;;;3.00;;
12780;SDS011;6454;43.304;24.344;2023-11-21T13:02:57;2.33;;;1.83;;
12780;SDS011;6454;43.304;24.344;2023-11-21T13:05:26;3.25;;;1.60;;
12780;SDS011;6454;43.304;24.344;2023-11-21T13:07:54;1.90;;;1.67;;
12780;SDS011;6454;43.304;24.344;2023-11-21T13:10:25;2.10;;;1.60;;
12780;SDS011;6454;43.304;24.344;2023-11-21T13:12:58;1.65;;;1.48;;
12780;SDS011;6454;43.304;24.344;2023-11-21T13:15:26;5.30;;;3.30;;
12780;SDS011;6454;43.304;24.344;2023-11-21T13:17:53;4.75;;;4.28;;
12780;SDS011;6454;43.304;24.344;2023-11-21T13:20:22;9.55;;;4.68;;
12780;SDS011;6454;43.304;24.344;2023-11-21T13:22:51;6.60;;;4.30;;
12780;SDS011;6454;43.304;24.344;2023-11-21T13:25:22;8.82;;;4.82;;
12780;SDS011;6454;43.304;24.344;2023-11-21T13:27:52;6.68;;;4.25;;
12780;SDS011;6454;43.304;24.344;2023-11-21T13:30:19;6.35;;;3.90;;
12780;SDS011;6454;43.304;24.344;2023-11-21T13:32:51;7.40;;;4.03;;
12780;SDS011;6454;43.304;24.344;2023-11-21T13:35:24;6.38;;;3.20;;
12780;SDS011;6454;43.304;24.344;2023-11-21T13:38:03;5.80;;;3.88;;
12780;SDS011;6454;43.304;24.344;2023-11-21T13:40:32;7.35;;;4.70;;
12780;SDS011;6454;43.304;24.344;2023-11-21T13:43:02;7.97;;;4.35;;
12780;SDS011;6454;43.304;24.344;2023-11-21T13:45:30;7.70;;;3.67;;
12780;SDS011;6454;43.304;24.344;2023-11-21T13:47:57;7.93;;;4.15;;
12780;SDS011;6454;43.304;24.344;2023-11-21T13:50:27;7.45;;;3.70;;
12780;SDS011;6454;43.304;24.344;2023-11-21T13:52:58;12.85;;;4.70;;
12780;SDS011;6454;43.304;24.344;2023-11-21T13:55:29;9.38;;;3.97;;
12780;SDS011;6454;43.304;24.344;2023-11-21T13:57:56;10.98;;;5.03;;
12780;SDS011;6454;43.304;24.344;2023-11-21T14:00:24;10.13;;;5.78;;
12780;SDS011;6454;43.304;24.344;2023-11-21T14:03:11;14.10;;;6.57;;
12780;SDS011;6454;43.304;24.344;2023-11-21T14:05:47;24.60;;;12.90;;
12780;SDS011;6454;43.304;24.344;2023-11-21T14:08:17;44.70;;;19.80;;
12780;SDS011;6454;43.304;24.344;2023-11-21T14:10:46;34.28;;;17.33;;
12780;SDS011;6454;43.304;24.344;2023-11-21T14:13:20;24.77;;;12.73;;
12780;SDS011;6454;43.304;24.344;2023-11-21T14:15:48;24.08;;;11.98;;
12780;SDS011;6454;43.304;24.344;2023-11-21T14:18:19;21.40;;;10.05;;
12780;SDS011;6454;43.304;24.344;2023-11-21T14:20:55;18.75;;;9.63;;
12780;SDS011;6454;43.304;24.344;2023-11-21T14:23:22;21.55;;;10.35;;
12780;SDS011;6454;43.304;24.344;2023-11-21T14:25:49;15.68;;;9.02;;
12780;SDS011;6454;43.304;24.344;2023-11-21T14:28:18;12.20;;;7.20;;
12780;SDS011;6454;43.304;24.344;2023-11-21T14:30:46;13.18;;;7.10;;
12780;SDS011;6454;43.304;24.344;2023-11-21T14:33:13;9.65;;;5.13;;
12780;SDS011;6454;43.304;24.344;2023-11-21T14:35:41;6.85;;;3.83;;
12780;SDS011;6454;43.304;24.344;2023-11-21T14:38:11;5.65;;;3.20;;
12780;SDS011;6454;43.304;24.344;2023-11-21T14:40:39;6.18;;;3.53;;
12780;SDS011;6454;43.304;24.344;2023-11-21T14:43:06;7.70;;;3.60;;
12780;SDS011;6454;43.304;24.344;2023-11-21T14:45:33;7.35;;;4.05;;
12780;SDS011;6454;43.304;24.344;2023-11-21T14:48:00;13.52;;;7.00;;
12780;SDS011;6454;43.304;24.344;2023-11-21T14:50:40;14.88;;;7.25;;
12780;SDS011;6454;43.304;24.344;2023-11-21T14:53:37;6.65;;;4.00;;
12780;SDS011;6454;43.304;24.344;2023-11-21T14:56:18;10.63;;;4.78;;
12780;SDS011;6454;43.304;24.344;2023-11-21T14:58:51;26.20;;;12.80;;
12780;SDS011;6454;43.304;24.344;2023-11-21T15:01:18;26.42;;;11.85;;